sensor_id;sensor_type;location;lat;lon;timestamp;pressure;altitude;pressure_sealevel;temperature;humidity
27040;BME280;14589;51.578;7.306;2023-09-30T00:00:43;102036.25;;;12.61;100.00
27040;BME280;14589;51.578;7.306;2023-09-30T00:03:14;102030.22;;;12.57;100.00
27040;BME280;14589;51.578;7.306;2023-09-30T00:05:44;102034.81;;;12.56;100.00
27040;BME280;14589;51.578;7.306;2023-09-30T00:08:14;102043.97;;;12.55;100.00
27040;BME280;14589;51.578;7.306;2023-09-30T00:10:45;102034.06;;;12.54;100.00
27040;BME280;14589;51.578;7.306;2023-09-30T00:13:16;102024.31;;;12.52;100.00
27040;BME280;14589;51.578;7.306;2023-09-30T00:15:47;102026.28;;;12.50;100.00
27040;BME280;14589;51.578;7.306;2023-09-30T00:18:17;102029.13;;;12.48;100.00
27040;BME280;14589;51.578;7.306;2023-09-30T00:20:48;102044.47;;;12.49;100.00
27040;BME280;14589;51.578;7.306;2023-09-30T00:23:18;102044.75;;;12.46;100.00
27040;BME280;14589;51.578;7.306;2023-09-30T00:25:51;102050.03;;;12.48;100.00
27040;BME280;14589;51.578;7.306;2023-09-30T00:28:22;102050.19;;;12.46;100.00
27040;BME280;14589;51.578;7.306;2023-09-30T00:30:52;102050.72;;;12.40;100.00
27040;BME280;14589;51.578;7.306;2023-09-30T00:33:22;102041.19;;;12.35;100.00
27040;BME280;14589;51.578;7.306;2023-09-30T00:35:53;102038.34;;;12.36;100.00
27040;BME280;14589;51.578;7.306;2023-09-30T00:38:23;102043.19;;;12.33;100.00
27040;BME280;14589;51.578;7.306;2023-09-30T00:40:55;102044.16;;;12.32;100.00
27040;BME280;14589;51.578;7.306;2023-09-30T00:43:25;102018.81;;;12.31;100.00
27040;BME280;14589;51.578;7.306;2023-09-30T00:46:02;102035.88;;;12.33;100.00
27040;BME280;14589;51.578;7.306;2023-09-30T00:48:36;102045.03;;;12.32;100.00
27040;BME280;14589;51.578;7.306;2023-09-30T00:51:07;102047.34;;;12.37;100.00
27040;BME280;14589;51.578;7.306;2023-09-30T00:53:38;102048.97;;;12.39;100.00
27040;BME280;14589;51.578;7.306;2023-09-30T00:56:09;102041.69;;;12.40;100.00
27040;BME280;14589;51.578;7.306;2023-09-30T00:58:41;102023.28;;;12.32;100.00
27040;BME280;14589;51.578;7.306;2023-09-30T01:01:11;102021.03;;;12.37;100.00
27040;BME280;14589;51.578;7.306;2023-09-30T01:03:42;102028.31;;;12.37;100.00
27040;BME280;14589;51.578;7.306;2023-09-30T01:06:13;102033.75;;;12.37;100.00
27040;BME280;14589;51.578;7.306;2023-09-30T01:08:44;102056.63;;;12.45;100.00
27040;BME280;14589;51.578;7.306;2023-09-30T01:11:14;102048.47;;;12.45;100.00
27040;BME280;14589;51.578;7.306;2023-09-30T01:13:45;102062.41;;;12.52;100.00
27040;BME280;14589;51.578;7.306;2023-09-30T01:16:17;102051.78;;;12.49;100.00
27040;BME280;14589;51.578;7.306;2023-09-30T01:18:48;102045.06;;;12.53;100.00
27040;BME280;14589;51.578;7.306;2023-09-30T01:21:19;102051.25;;;12.55;100.00
27040;BME280;14589;51.578;7.306;2023-09-30T01:23:50;102043.97;;;12.55;100.00
27040;BME280;14589;51.578;7.306;2023-09-30T01:26:21;102040.13;;;12.58;100.00
27040;BME280;14589;51.578;7.306;2023-09-30T01:28:52;102041.25;;;12.55;100.00
27040;BME280;14589;51.578;7.306;2023-09-30T01:31:23;102029.41;;;12.45;100.00
27040;BME280;14589;51.578;7.306;2023-09-30T01:33:53;102030.78;;;12.40;100.00
27040;BME280;14589;51.578;7.306;2023-09-30T01:36:24;102038.81;;;12.41;100.00
27040;BME280;14589;51.578;7.306;2023-09-30T01:38:55;102037.09;;;12.40;100.00
27040;BME280;14589;51.578;7.306;2023-09-30T01:41:25;102038.97;;;12.40;100.00
27040;BME280;14589;51.578;7.306;2023-09-30T01:43:56;102050.72;;;12.40;100.00
27040;BME280;14589;51.578;7.306;2023-09-30T01:46:27;102047.13;;;12.40;100.00
27040;BME280;14589;51.578;7.306;2023-09-30T01:48:57;102048.97;;;12.39;100.00
27040;BME280;14589;51.578;7.306;2023-09-30T01:51:28;102064.44;;;12.39;100.00
27040;BME280;14589;51.578;7.306;2023-09-30T01:53:59;102064.56;;;12.37;100.00
27040;BME280;14589;51.578;7.306;2023-09-30T01:56:30;102075.44;;;12.37;100.00
27040;BME280;14589;51.578;7.306;2023-09-30T01:59:02;102078.03;;;12.39;100.00
27040;BME280;14589;51.578;7.306;2023-09-30T02:01:33;102069.13;;;12.37;100.00
27040;BME280;14589;51.578;7.306;2023-09-30T02:04:03;102063.94;;;12.34;100.00
27040;BME280;14589;51.578;7.306;2023-09-30T02:06:36;102058.00;;;12.29;100.00
27040;BME280;14589;51.578;7.306;2023-09-30T02:09:13;102053.81;;;12.25;100.00
27040;BME280;14589;51.578;7.306;2023-09-30T02:11:44;102069.75;;;12.29;100.00
27040;BME280;14589;51.578;7.306;2023-09-30T02:14:14;102087.31;;;12.25;100.00
27040;BME280;14589;51.578;7.306;2023-09-30T02:16:48;102088.78;;;12.29;100.00
27040;BME280;14589;51.578;7.306;2023-09-30T02:19:19;102092.50;;;12.28;100.00
27040;BME280;14589;51.578;7.306;2023-09-30T02:21:49;102087.44;;;12.24;100.00
27040;BME280;14589;51.578;7.306;2023-09-30T02:24:20;102089.06;;;12.26;100.00
27040;BME280;14589;51.578;7.306;2023-09-30T02:26:53;102076.44;;;12.25;100.00
27040;BME280;14589;51.578;7.306;2023-09-30T02:29:23;102064.34;;;12.18;100.00
27040;BME280;14589;51.578;7.306;2023-09-30T02:31:54;102070.53;;;12.20;100.00
27040;BME280;14589;51.578;7.306;2023-09-30T02:34:25;102077.19;;;12.16;100.00
27040;BME280;14589;51.578;7.306;2023-09-30T02:36:55;102070.03;;;12.15;100.00
27040;BME280;14589;51.578;7.306;2023-09-30T02:39:26;102058.53;;;12.11;100.00
27040;BME280;14589;51.578;7.306;2023-09-30T02:41:56;102055.72;;;12.02;100.00
27040;BME280;14589;51.578;7.306;2023-09-30T02:44:27;102043.13;;;12.01;100.00
27040;BME280;14589;51.578;7.306;2023-09-30T02:46:57;102048.28;;;12.04;100.00
27040;BME280;14589;51.578;7.306;2023-09-30T02:49:28;102026.31;;;11.96;100.00
27040;BME280;14589;51.578;7.306;2023-09-30T02:51:59;102042.63;;;11.96;100.00
27040;BME280;14589;51.578;7.306;2023-09-30T02:54:31;102048.19;;;11.94;100.00
27040;BME280;14589;51.578;7.306;2023-09-30T02:57:01;102059.44;;;11.90;100.00
27040;BME280;14589;51.578;7.306;2023-09-30T02:59:35;102064.13;;;11.88;100.00
27040;BME280;14589;51.578;7.306;2023-09-30T03:02:06;102075.13;;;11.86;100.00
27040;BME280;14589;51.578;7.306;2023-09-30T03:04:37;102091.81;;;11.82;100.00
27040;BME280;14589;51.578;7.306;2023-09-30T03:07:07;102087.34;;;11.81;100.00
27040;BME280;14589;51.578;7.306;2023-09-30T03:09:38;102090.19;;;11.79;100.00
27040;BME280;14589;51.578;7.306;2023-09-30T03:12:10;102076.97;;;11.74;100.00
27040;BME280;14589;51.578;7.306;2023-09-30T03:14:42;102078.72;;;11.75;100.00
27040;BME280;14589;51.578;7.306;2023-09-30T03:17:15;102083.50;;;11.72;100.00
27040;BME280;14589;51.578;7.306;2023-09-30T03:19:45;102073.75;;;11.69;100.00
27040;BME280;14589;51.578;7.306;2023-09-30T03:22:16;102074.50;;;11.71;100.00
27040;BME280;14589;51.578;7.306;2023-09-30T03:24:46;102060.16;;;11.69;100.00
27040;BME280;14589;51.578;7.306;2023-09-30T03:27:17;102069.41;;;11.67;100.00
27040;BME280;14589;51.578;7.306;2023-09-30T03:29:47;102065.31;;;11.61;100.00
27040;BME280;14589;51.578;7.306;2023-09-30T03:32:18;102062.75;;;11.60;100.00
27040;BME280;14589;51.578;7.306;2023-09-30T03:34:48;102069.91;;;11.61;100.00
27040;BME280;14589;51.578;7.306;2023-09-30T03:37:19;102059.91;;;11.61;100.00
27040;BME280;14589;51.578;7.306;2023-09-30T03:39:50;102063.84;;;11.57;100.00
27040;BME280;14589;51.578;7.306;2023-09-30T03:42:20;102062.97;;;11.57;100.00
27040;BME280;14589;51.578;7.306;2023-09-30T03:44:51;102062.38;;;11.53;100.00
27040;BME280;14589;51.578;7.306;2023-09-30T03:47:21;102059.13;;;11.48;100.00
27040;BME280;14589;51.578;7.306;2023-09-30T03:49:55;102062.59;;;11.50;100.00
27040;BME280;14589;51.578;7.306;2023-09-30T03:52:26;102049.63;;;11.43;100.00
27040;BME280;14589;51.578;7.306;2023-09-30T03:55:01;102062.13;;;11.45;100.00
27040;BME280;14589;51.578;7.306;2023-09-30T03:57:35;102061.03;;;11.48;100.00
27040;BME280;14589;51.578;7.306;2023-09-30T04:00:06;102065.06;;;11.42;100.00
27040;BME280;14589;51.578;7.306;2023-09-30T04:02:42;102064.94;;;11.44;100.00
27040;BME280;14589;51.578;7.306;2023-09-30T04:05:13;102057.28;;;11.38;100.00
27040;BME280;14589;51.578;7.306;2023-09-30T04:07:44;102051.84;;;11.38;100.00
27040;BME280;14589;51.578;7.306;2023-09-30T04:10:15;102061.84;;;11.37;100.00
27040;BME280;14589;51.578;7.306;2023-09-30T04:12:46;102068.03;;;11.39;100.00
27040;BME280;14589;51.578;7.306;2023-09-30T04:15:17;102070.00;;;11.37;100.00
27040;BME280;14589;51.578;7.306;2023-09-30T04:17:50;102061.25;;;11.33;100.00
27040;BME280;14589;51.578;7.306;2023-09-30T04:20:22;102069.13;;;11.36;100.00
27040;BME280;14589;51.578;7.306;2023-09-30T04:22:57;102072.84;;;11.35;100.00
27040;BME280;14589;51.578;7.306;2023-09-30T04:25:28;102062.09;;;11.34;100.00
27040;BME280;14589;51.578;7.306;2023-09-30T04:27:58;102066.78;;;11.32;100.00
27040;BME280;14589;51.578;7.306;2023-09-30T04:30:29;102062.34;;;11.31;100.00
27040;BME280;14589;51.578;7.306;2023-09-30T04:33:03;102066.16;;;11.28;100.00
27040;BME280;14589;51.578;7.306;2023-09-30T04:35:36;102076.28;;;11.26;100.00
27040;BME280;14589;51.578;7.306;2023-09-30T04:38:07;102085.41;;;11.25;100.00
27040;BME280;14589;51.578;7.306;2023-09-30T04:40:38;102076.88;;;11.19;100.00
27040;BME280;14589;51.578;7.306;2023-09-30T04:43:08;102080.34;;;11.21;100.00
27040;BME280;14589;51.578;7.306;2023-09-30T04:45:38;102092.28;;;11.18;100.00
27040;BME280;14589;51.578;7.306;2023-09-30T04:48:10;102091.56;;;11.16;100.00
27040;BME280;14589;51.578;7.306;2023-09-30T04:50:40;102089.06;;;11.13;100.00
27040;BME280;14589;51.578;7.306;2023-09-30T04:53:11;102098.69;;;11.17;100.00
27040;BME280;14589;51.578;7.306;2023-09-30T04:55:46;102090.81;;;11.14;100.00
27040;BME280;14589;51.578;7.306;2023-09-30T04:58:19;102091.78;;;11.13;100.00
27040;BME280;14589;51.578;7.306;2023-09-30T05:00:50;102094.88;;;11.09;100.00
27040;BME280;14589;51.578;7.306;2023-09-30T05:03:20;102111.16;;;11.09;100.00
27040;BME280;14589;51.578;7.306;2023-09-30T05:05:54;102108.81;;;11.04;100.00
27040;BME280;14589;51.578;7.306;2023-09-30T05:08:28;102111.75;;;11.01;100.00
27040;BME280;14589;51.578;7.306;2023-09-30T05:10:59;102104.69;;;10.99;100.00
27040;BME280;14589;51.578;7.306;2023-09-30T05:13:29;102101.97;;;10.99;100.00
27040;BME280;14589;51.578;7.306;2023-09-30T05:16:00;102105.03;;;10.94;100.00
27040;BME280;14589;51.578;7.306;2023-09-30T05:18:30;102098.13;;;10.90;100.00
27040;BME280;14589;51.578;7.306;2023-09-30T05:21:00;102109.84;;;10.90;100.00
27040;BME280;14589;51.578;7.306;2023-09-30T05:23:31;102107.63;;;10.84;100.00
27040;BME280;14589;51.578;7.306;2023-09-30T05:26:02;102105.00;;;10.83;100.00
27040;BME280;14589;51.578;7.306;2023-09-30T05:28:33;102111.53;;;10.80;100.00
27040;BME280;14589;51.578;7.306;2023-09-30T05:31:03;102108.81;;;10.80;100.00
27040;BME280;14589;51.578;7.306;2023-09-30T05:33:34;102110.13;;;10.75;100.00
27040;BME280;14589;51.578;7.306;2023-09-30T05:36:06;102110.91;;;10.77;100.00
27040;BME280;14589;51.578;7.306;2023-09-30T05:38:36;102116.44;;;10.75;100.00
27040;BME280;14589;51.578;7.306;2023-09-30T05:41:07;102113.97;;;10.72;100.00
27040;BME280;14589;51.578;7.306;2023-09-30T05:43:38;102134.44;;;10.76;100.00
27040;BME280;14589;51.578;7.306;2023-09-30T05:46:08;102120.00;;;10.76;100.00
27040;BME280;14589;51.578;7.306;2023-09-30T05:48:39;102133.59;;;10.76;100.00
27040;BME280;14589;51.578;7.306;2023-09-30T05:51:10;102122.63;;;10.77;100.00
27040;BME280;14589;51.578;7.306;2023-09-30T05:53:44;102123.50;;;10.78;100.00
27040;BME280;14589;51.578;7.306;2023-09-30T05:56:17;102125.84;;;10.82;100.00
27040;BME280;14589;51.578;7.306;2023-09-30T05:58:48;102125.50;;;10.87;100.00
27040;BME280;14589;51.578;7.306;2023-09-30T06:01:18;102126.34;;;10.87;100.00
27040;BME280;14589;51.578;7.306;2023-09-30T06:03:49;102125.16;;;10.91;100.00
27040;BME280;14589;51.578;7.306;2023-09-30T06:06:19;102114.06;;;10.94;100.00
27040;BME280;14589;51.578;7.306;2023-09-30T06:08:49;102116.56;;;10.98;100.00
27040;BME280;14589;51.578;7.306;2023-09-30T06:11:21;102125.09;;;11.04;100.00
27040;BME280;14589;51.578;7.306;2023-09-30T06:13:54;102111.38;;;11.06;100.00
27040;BME280;14589;51.578;7.306;2023-09-30T06:16:25;102117.19;;;11.12;100.00
27040;BME280;14589;51.578;7.306;2023-09-30T06:18:56;102120.44;;;11.17;100.00
27040;BME280;14589;51.578;7.306;2023-09-30T06:21:26;102127.25;;;11.23;100.00
27040;BME280;14589;51.578;7.306;2023-09-30T06:23:59;102119.22;;;11.21;100.00
27040;BME280;14589;51.578;7.306;2023-09-30T06:26:29;102131.09;;;11.31;100.00
27040;BME280;14589;51.578;7.306;2023-09-30T06:28:59;102126.81;;;11.40;100.00
27040;BME280;14589;51.578;7.306;2023-09-30T06:31:30;102138.78;;;11.49;100.00
27040;BME280;14589;51.578;7.306;2023-09-30T06:34:00;102130.91;;;11.57;100.00
27040;BME280;14589;51.578;7.306;2023-09-30T06:36:31;102128.34;;;11.66;100.00
27040;BME280;14589;51.578;7.306;2023-09-30T06:39:03;102142.97;;;11.77;100.00
27040;BME280;14589;51.578;7.306;2023-09-30T06:41:35;102132.34;;;11.85;100.00
27040;BME280;14589;51.578;7.306;2023-09-30T06:44:06;102143.94;;;11.98;100.00
27040;BME280;14589;51.578;7.306;2023-09-30T06:46:37;102134.06;;;12.08;100.00
27040;BME280;14589;51.578;7.306;2023-09-30T06:49:08;102147.41;;;12.22;100.00
27040;BME280;14589;51.578;7.306;2023-09-30T06:51:38;102160.63;;;12.38;100.00
27040;BME280;14589;51.578;7.306;2023-09-30T06:54:09;102155.06;;;12.50;100.00
27040;BME280;14589;51.578;7.306;2023-09-30T06:56:40;102153.16;;;12.62;100.00
27040;BME280;14589;51.578;7.306;2023-09-30T06:59:11;102157.19;;;12.79;100.00
27040;BME280;14589;51.578;7.306;2023-09-30T07:01:41;102149.63;;;12.93;100.00
27040;BME280;14589;51.578;7.306;2023-09-30T07:04:12;102157.00;;;13.14;100.00
27040;BME280;14589;51.578;7.306;2023-09-30T07:06:42;102147.63;;;13.27;100.00
27040;BME280;14589;51.578;7.306;2023-09-30T07:09:13;102154.22;;;13.46;100.00
27040;BME280;14589;51.578;7.306;2023-09-30T07:11:43;102164.56;;;13.63;100.00
27040;BME280;14589;51.578;7.306;2023-09-30T07:14:14;102169.25;;;13.82;100.00
27040;BME280;14589;51.578;7.306;2023-09-30T07:16:45;102175.22;;;13.96;100.00
27040;BME280;14589;51.578;7.306;2023-09-30T07:19:16;102168.97;;;14.15;100.00
27040;BME280;14589;51.578;7.306;2023-09-30T07:21:46;102183.72;;;14.33;100.00
27040;BME280;14589;51.578;7.306;2023-09-30T07:24:16;102196.34;;;14.55;100.00
27040;BME280;14589;51.578;7.306;2023-09-30T07:26:47;102191.50;;;14.68;100.00
27040;BME280;14589;51.578;7.306;2023-09-30T07:29:17;102192.53;;;14.86;100.00
27040;BME280;14589;51.578;7.306;2023-09-30T07:31:47;102195.31;;;15.06;100.00
27040;BME280;14589;51.578;7.306;2023-09-30T07:34:18;102205.53;;;15.23;100.00
27040;BME280;14589;51.578;7.306;2023-09-30T07:36:48;102202.50;;;15.26;100.00
27040;BME280;14589;51.578;7.306;2023-09-30T07:39:19;102207.84;;;15.47;100.00
27040;BME280;14589;51.578;7.306;2023-09-30T07:41:52;102208.72;;;15.66;100.00
27040;BME280;14589;51.578;7.306;2023-09-30T07:44:22;102216.03;;;15.85;100.00
27040;BME280;14589;51.578;7.306;2023-09-30T07:46:53;102214.00;;;15.97;100.00
27040;BME280;14589;51.578;7.306;2023-09-30T07:49:23;102215.84;;;16.06;100.00
27040;BME280;14589;51.578;7.306;2023-09-30T07:51:54;102210.03;;;16.28;100.00
27040;BME280;14589;51.578;7.306;2023-09-30T07:54:25;102214.38;;;16.48;100.00
27040;BME280;14589;51.578;7.306;2023-09-30T07:56:55;102216.66;;;16.63;100.00
27040;BME280;14589;51.578;7.306;2023-09-30T07:59:27;102218.91;;;16.77;97.97
27040;BME280;14589;51.578;7.306;2023-09-30T08:01:57;102223.78;;;16.83;97.42
27040;BME280;14589;51.578;7.306;2023-09-30T08:04:28;102216.47;;;17.01;96.47
27040;BME280;14589;51.578;7.306;2023-09-30T08:06:59;102220.09;;;16.92;91.86
27040;BME280;14589;51.578;7.306;2023-09-30T08:09:30;102212.63;;;17.12;92.02
27040;BME280;14589;51.578;7.306;2023-09-30T08:12:00;102222.09;;;17.17;89.15
27040;BME280;14589;51.578;7.306;2023-09-30T08:14:31;102231.19;;;17.35;91.99
27040;BME280;14589;51.578;7.306;2023-09-30T08:17:01;102220.84;;;17.47;90.29
27040;BME280;14589;51.578;7.306;2023-09-30T08:19:32;102227.56;;;17.62;88.56
27040;BME280;14589;51.578;7.306;2023-09-30T08:22:03;102229.75;;;17.76;87.94
27040;BME280;14589;51.578;7.306;2023-09-30T08:24:34;102225.16;;;17.85;86.20
27040;BME280;14589;51.578;7.306;2023-09-30T08:27:04;102228.34;;;17.98;85.39
27040;BME280;14589;51.578;7.306;2023-09-30T08:29:38;102233.28;;;18.12;82.74
27040;BME280;14589;51.578;7.306;2023-09-30T08:32:09;102235.75;;;18.24;83.15
27040;BME280;14589;51.578;7.306;2023-09-30T08:34:40;102237.19;;;18.36;82.08
27040;BME280;14589;51.578;7.306;2023-09-30T08:37:10;102238.78;;;18.46;77.62
27040;BME280;14589;51.578;7.306;2023-09-30T08:39:41;102226.06;;;18.45;79.75
27040;BME280;14589;51.578;7.306;2023-09-30T08:42:11;102233.50;;;18.53;79.07
27040;BME280;14589;51.578;7.306;2023-09-30T08:44:42;102246.16;;;18.72;77.28
27040;BME280;14589;51.578;7.306;2023-09-30T08:47:13;102245.84;;;18.75;76.85
27040;BME280;14589;51.578;7.306;2023-09-30T08:49:45;102243.56;;;18.70;76.34
27040;BME280;14589;51.578;7.306;2023-09-30T08:52:17;102231.97;;;18.84;76.67
27040;BME280;14589;51.578;7.306;2023-09-30T08:54:48;102248.69;;;18.99;75.73
27040;BME280;14589;51.578;7.306;2023-09-30T08:57:19;102238.16;;;18.86;74.79
27040;BME280;14589;51.578;7.306;2023-09-30T08:59:52;102242.84;;;19.02;74.24
27040;BME280;14589;51.578;7.306;2023-09-30T09:02:23;102240.28;;;19.01;74.11
27040;BME280;14589;51.578;7.306;2023-09-30T09:04:54;102229.84;;;19.28;74.22
27040;BME280;14589;51.578;7.306;2023-09-30T09:07:24;102227.63;;;19.32;73.76
27040;BME280;14589;51.578;7.306;2023-09-30T09:10:24;102213.69;;;19.33;70.40
27040;BME280;14589;51.578;7.306;2023-09-30T09:12:56;102216.19;;;19.61;72.37
27040;BME280;14589;51.578;7.306;2023-09-30T09:15:28;102205.00;;;19.87;70.78
27040;BME280;14589;51.578;7.306;2023-09-30T09:17:58;102208.03;;;20.00;70.99
27040;BME280;14589;51.578;7.306;2023-09-30T09:20:29;102207.50;;;20.29;69.28
27040;BME280;14589;51.578;7.306;2023-09-30T09:22:59;102201.84;;;20.14;66.54
27040;BME280;14589;51.578;7.306;2023-09-30T09:25:38;102202.81;;;20.45;64.32
27040;BME280;14589;51.578;7.306;2023-09-30T09:28:09;102198.94;;;20.63;65.56
27040;BME280;14589;51.578;7.306;2023-09-30T09:30:39;102201.00;;;20.69;65.03
27040;BME280;14589;51.578;7.306;2023-09-30T09:33:11;102216.75;;;20.52;63.58
27040;BME280;14589;51.578;7.306;2023-09-30T09:35:47;102201.09;;;20.44;64.74
27040;BME280;14589;51.578;7.306;2023-09-30T09:38:18;102212.91;;;21.00;63.79
27040;BME280;14589;51.578;7.306;2023-09-30T09:40:49;102199.25;;;21.37;62.56
27040;BME280;14589;51.578;7.306;2023-09-30T09:43:19;102207.28;;;21.70;60.70
27040;BME280;14589;51.578;7.306;2023-09-30T09:45:50;102199.56;;;21.65;56.18
27040;BME280;14589;51.578;7.306;2023-09-30T09:48:21;102196.06;;;21.71;54.91
27040;BME280;14589;51.578;7.306;2023-09-30T09:50:52;102205.53;;;22.14;56.62
27040;BME280;14589;51.578;7.306;2023-09-30T09:53:24;102200.63;;;22.16;55.04
27040;BME280;14589;51.578;7.306;2023-09-30T09:55:56;102194.66;;;22.42;52.38
27040;BME280;14589;51.578;7.306;2023-09-30T09:58:29;102195.22;;;22.67;53.21
27040;BME280;14589;51.578;7.306;2023-09-30T10:01:02;102202.75;;;22.88;50.91
27040;BME280;14589;51.578;7.306;2023-09-30T10:03:32;102196.09;;;23.18;50.61
27040;BME280;14589;51.578;7.306;2023-09-30T10:06:03;102205.19;;;23.48;50.07
27040;BME280;14589;51.578;7.306;2023-09-30T10:08:44;102202.41;;;23.33;50.41
27040;BME280;14589;51.578;7.306;2023-09-30T10:11:18;102204.78;;;23.15;50.20
27040;BME280;14589;51.578;7.306;2023-09-30T10:13:56;102217.06;;;22.91;51.03
27040;BME280;14589;51.578;7.306;2023-09-30T10:16:50;102226.41;;;22.32;53.16
27040;BME280;14589;51.578;7.306;2023-09-30T10:19:22;102233.44;;;22.19;53.91
27040;BME280;14589;51.578;7.306;2023-09-30T10:22:21;102230.00;;;22.17;51.20
27040;BME280;14589;51.578;7.306;2023-09-30T10:24:59;102223.75;;;22.38;52.96
27040;BME280;14589;51.578;7.306;2023-09-30T10:27:30;102218.09;;;22.17;49.96
27040;BME280;14589;51.578;7.306;2023-09-30T10:30:07;102218.31;;;21.70;53.22
27040;BME280;14589;51.578;7.306;2023-09-30T10:40:55;102234.13;;;20.99;54.38
27040;BME280;14589;51.578;7.306;2023-09-30T10:43:29;102244.34;;;20.91;55.96
27040;BME280;14589;51.578;7.306;2023-09-30T10:46:02;102244.06;;;20.78;55.24
27040;BME280;14589;51.578;7.306;2023-09-30T10:48:36;102238.84;;;20.83;55.57
27040;BME280;14589;51.578;7.306;2023-09-30T10:51:13;102235.00;;;21.31;54.22
27040;BME280;14589;51.578;7.306;2023-09-30T10:53:46;102251.69;;;21.37;51.89
27040;BME280;14589;51.578;7.306;2023-09-30T10:56:19;102248.94;;;21.37;50.41
27040;BME280;14589;51.578;7.306;2023-09-30T10:58:53;102233.50;;;20.89;53.33
27040;BME280;14589;51.578;7.306;2023-09-30T11:01:24;102235.03;;;20.92;52.59
27040;BME280;14589;51.578;7.306;2023-09-30T11:03:59;102221.91;;;20.94;52.78
27040;BME280;14589;51.578;7.306;2023-09-30T11:06:34;102211.00;;;20.70;53.73
27040;BME280;14589;51.578;7.306;2023-09-30T11:09:05;102220.34;;;20.61;54.61
27040;BME280;14589;51.578;7.306;2023-09-30T11:11:49;102221.56;;;20.58;54.87
27040;BME280;14589;51.578;7.306;2023-09-30T11:14:28;102215.88;;;20.51;55.23
27040;BME280;14589;51.578;7.306;2023-09-30T11:17:01;102218.31;;;20.46;55.15
27040;BME280;14589;51.578;7.306;2023-09-30T11:19:36;102219.00;;;20.48;54.32
27040;BME280;14589;51.578;7.306;2023-09-30T11:22:07;102217.13;;;20.41;54.42
27040;BME280;14589;51.578;7.306;2023-09-30T11:24:38;102208.84;;;20.25;54.35
27040;BME280;14589;51.578;7.306;2023-09-30T11:27:08;102196.03;;;19.93;54.89
27040;BME280;14589;51.578;7.306;2023-09-30T11:29:51;102196.19;;;19.99;55.20
27040;BME280;14589;51.578;7.306;2023-09-30T11:32:26;102200.53;;;20.57;53.76
27040;BME280;14589;51.578;7.306;2023-09-30T11:34:57;102177.88;;;20.78;52.47
27040;BME280;14589;51.578;7.306;2023-09-30T11:37:32;102190.22;;;21.44;49.96
27040;BME280;14589;51.578;7.306;2023-09-30T11:40:11;102188.84;;;21.48;48.29
27040;BME280;14589;51.578;7.306;2023-09-30T11:43:09;102185.22;;;22.07;47.17
27040;BME280;14589;51.578;7.306;2023-09-30T11:45:42;102181.88;;;22.71;46.51
27040;BME280;14589;51.578;7.306;2023-09-30T11:48:19;102183.63;;;23.29;45.18
27040;BME280;14589;51.578;7.306;2023-09-30T11:50:52;102182.72;;;23.64;42.96
27040;BME280;14589;51.578;7.306;2023-09-30T11:53:25;102182.41;;;23.74;41.87
27040;BME280;14589;51.578;7.306;2023-09-30T11:55:59;102189.28;;;24.06;38.58
27040;BME280;14589;51.578;7.306;2023-09-30T11:58:33;102163.53;;;24.46;38.54
27040;BME280;14589;51.578;7.306;2023-09-30T12:01:04;102179.50;;;24.79;36.29
27040;BME280;14589;51.578;7.306;2023-09-30T12:03:37;102174.31;;;25.10;36.44
27040;BME280;14589;51.578;7.306;2023-09-30T12:06:10;102181.56;;;25.11;35.26
27040;BME280;14589;51.578;7.306;2023-09-30T12:08:43;102163.00;;;25.31;36.00
27040;BME280;14589;51.578;7.306;2023-09-30T12:11:15;102173.78;;;25.61;34.87
27040;BME280;14589;51.578;7.306;2023-09-30T12:13:46;102160.53;;;25.76;34.99
27040;BME280;14589;51.578;7.306;2023-09-30T12:16:19;102164.78;;;26.05;34.98
27040;BME280;14589;51.578;7.306;2023-09-30T12:18:49;102172.25;;;26.31;34.14
27040;BME280;14589;51.578;7.306;2023-09-30T12:21:20;102164.06;;;26.49;34.79
27040;BME280;14589;51.578;7.306;2023-09-30T12:23:51;102156.16;;;26.52;34.59
27040;BME280;14589;51.578;7.306;2023-09-30T12:26:21;102150.59;;;26.52;33.61
27040;BME280;14589;51.578;7.306;2023-09-30T12:28:52;102151.13;;;26.74;34.09
27040;BME280;14589;51.578;7.306;2023-09-30T12:31:23;102132.13;;;26.65;33.49
27040;BME280;14589;51.578;7.306;2023-09-30T12:33:53;102136.53;;;26.28;35.04
27040;BME280;14589;51.578;7.306;2023-09-30T12:36:24;102135.75;;;25.61;35.71
27040;BME280;14589;51.578;7.306;2023-09-30T12:38:55;102128.50;;;26.57;34.74
27040;BME280;14589;51.578;7.306;2023-09-30T12:41:25;102140.16;;;26.92;34.43
27040;BME280;14589;51.578;7.306;2023-09-30T12:43:56;102129.91;;;26.73;34.48
27040;BME280;14589;51.578;7.306;2023-09-30T12:46:27;102122.19;;;26.88;34.37
27040;BME280;14589;51.578;7.306;2023-09-30T12:49:01;102120.16;;;27.09;33.71
27040;BME280;14589;51.578;7.306;2023-09-30T12:51:33;102114.56;;;27.40;33.99
27040;BME280;14589;51.578;7.306;2023-09-30T12:54:03;102117.31;;;27.71;33.07
27040;BME280;14589;51.578;7.306;2023-09-30T12:56:34;102123.97;;;27.95;31.96
27040;BME280;14589;51.578;7.306;2023-09-30T12:59:05;102128.69;;;28.20;31.57
27040;BME280;14589;51.578;7.306;2023-09-30T13:01:35;102133.13;;;27.77;31.90
27040;BME280;14589;51.578;7.306;2023-09-30T13:04:06;102125.47;;;27.10;33.02
27040;BME280;14589;51.578;7.306;2023-09-30T13:06:41;102120.91;;;26.84;33.58
27040;BME280;14589;51.578;7.306;2023-09-30T13:09:11;102115.91;;;27.62;32.72
27040;BME280;14589;51.578;7.306;2023-09-30T13:11:42;102112.88;;;27.89;32.29
27040;BME280;14589;51.578;7.306;2023-09-30T13:14:12;102109.13;;;27.76;32.21